createdAt,value
2017-12-01T00:01:55.680Z,62.40
2017-12-01T00:04:23.175Z,63.50
2017-12-01T00:06:51.468Z,62.95
2017-12-01T00:09:18.960Z,63.47
2017-12-01T00:11:46.446Z,61.85
2017-12-01T00:14:14.758Z,63.55
2017-12-01T00:16:42.244Z,65.95
2017-12-01T00:19:09.804Z,58.13
2017-12-01T00:21:37.307Z,64.32
2017-12-01T00:24:05.563Z,63.03
2017-12-01T00:26:33.084Z,62.15
2017-12-01T00:29:00.591Z,59.55
2017-12-01T00:31:28.845Z,57.70
2017-12-01T00:33:56.347Z,64.75
2017-12-01T00:36:24.614Z,59.92
2017-12-01T00:38:52.859Z,61.75
2017-12-01T00:41:20.344Z,54.88
2017-12-01T00:43:48.626Z,57.65
2017-12-01T00:46:16.908Z,63.58
2017-12-01T00:48:45.211Z,61.03
2017-12-01T00:51:12.746Z,55.30
2017-12-01T00:53:41.026Z,57.00
2017-12-01T00:56:08.529Z,56.80
2017-12-01T00:58:36.065Z,57.62
2017-12-01T01:01:03.563Z,59.42
2017-12-01T01:03:31.192Z,53.47
2017-12-01T01:05:58.716Z,56.92
2017-12-01T01:08:26.968Z,58.97
2017-12-01T01:10:55.236Z,57.35
2017-12-01T01:13:22.838Z,60.53
2017-12-01T01:15:50.330Z,59.45
2017-12-01T01:18:17.818Z,56.05
2017-12-01T01:20:46.098Z,57.03
2017-12-01T01:23:15.099Z,55.33
2017-12-01T01:25:43.364Z,55.83
2017-12-01T01:28:10.964Z,55.17
2017-12-01T01:30:38.452Z,55.40
2017-12-01T01:33:05.944Z,57.40
2017-12-01T01:35:33.461Z,52.35
2017-12-01T01:38:01.013Z,58.45
2017-12-01T01:40:28.569Z,57.70
2017-12-01T01:42:56.101Z,56.20
2017-12-01T01:45:24.387Z,61.88
2017-12-01T01:47:51.873Z,57.00
2017-12-01T01:50:19.393Z,64.28
2017-12-01T01:52:47.656Z,59.88
2017-12-01T01:55:15.930Z,58.33
2017-12-01T01:57:43.444Z,61.28
2017-12-01T02:00:10.941Z,55.30
2017-12-01T02:02:38.438Z,62.35
2017-12-01T02:05:05.967Z,62.67
2017-12-01T02:07:34.224Z,58.95
2017-12-01T02:10:01.737Z,58.70
2017-12-01T02:12:29.273Z,60.88
2017-12-01T02:14:57.563Z,54.05
2017-12-01T02:17:25.047Z,55.22
2017-12-01T02:19:52.560Z,60.38
2017-12-01T02:22:20.821Z,61.88
2017-12-01T02:24:48.313Z,59.42
2017-12-01T02:27:15.821Z,62.65
2017-12-01T02:29:43.304Z,61.03
2017-12-01T02:32:11.580Z,64.87
2017-12-01T02:34:39.848Z,58.38
2017-12-01T02:37:07.350Z,61.83
2017-12-01T02:39:34.892Z,61.63
2017-12-01T02:42:02.399Z,62.83
2017-12-01T02:44:29.892Z,60.33
2017-12-01T02:46:58.180Z,61.20
2017-12-01T02:49:26.456Z,63.38
2017-12-01T02:51:54.726Z,65.25
2017-12-01T02:54:22.971Z,70.82
2017-12-01T02:56:50.561Z,67.60
2017-12-01T02:59:18.063Z,61.63
2017-12-01T03:01:45.561Z,68.60
2017-12-01T03:04:13.072Z,63.65
2017-12-01T03:06:40.602Z,67.47
2017-12-01T03:09:08.860Z,73.53
2017-12-01T03:11:37.129Z,67.80
2017-12-01T03:14:04.721Z,65.78
2017-12-01T03:16:32.223Z,70.47
2017-12-01T03:18:59.788Z,67.75
2017-12-01T03:21:27.397Z,66.90
2017-12-01T03:23:55.654Z,62.47
2017-12-01T03:26:23.911Z,67.03
2017-12-01T03:28:51.396Z,68.37
2017-12-01T03:31:19.689Z,72.35
2017-12-01T03:33:47.233Z,70.37
2017-12-01T03:36:15.506Z,70.25
2017-12-01T03:38:43.918Z,69.82
2017-12-01T03:41:11.452Z,67.30
2017-12-01T03:43:39.739Z,71.03
2017-12-01T03:46:07.293Z,64.85
2017-12-01T03:48:34.849Z,72.32
2017-12-01T03:51:03.126Z,66.80
2017-12-01T03:53:30.624Z,58.67
2017-12-01T03:55:58.144Z,48.53
2017-12-01T03:58:25.627Z,55.70
2017-12-01T04:00:53.136Z,49.90
2017-12-01T04:03:20.616Z,50.35
2017-12-01T04:05:48.889Z,49.15
2017-12-01T04:08:17.164Z,51.58
2017-12-01T04:10:45.608Z,54.17
2017-12-01T04:13:13.208Z,51.95
2017-12-01T04:15:41.486Z,51.33
2017-12-01T04:18:09.841Z,52.45
2017-12-01T04:20:37.420Z,57.00
2017-12-01T04:23:05.706Z,62.97
2017-12-01T04:25:33.209Z,59.45
2017-12-01T04:28:00.725Z,61.72
2017-12-01T04:30:28.294Z,59.00
2017-12-01T04:32:55.776Z,56.47
2017-12-01T04:35:23.298Z,58.80
2017-12-01T04:37:51.548Z,59.97
2017-12-01T04:40:19.832Z,62.15
2017-12-01T04:42:48.113Z,54.85
2017-12-01T04:45:16.377Z,60.00
2017-12-01T04:47:44.665Z,55.63
2017-12-01T04:50:12.944Z,56.58
2017-12-01T04:52:41.192Z,61.37
2017-12-01T04:55:08.779Z,62.90
2017-12-01T04:57:37.068Z,62.00
2017-12-01T05:00:04.624Z,60.80
2017-12-01T05:02:32.186Z,57.95
2017-12-01T05:04:59.685Z,61.90
2017-12-01T05:07:27.188Z,61.97
2017-12-01T05:09:55.498Z,61.05
2017-12-01T05:12:23.061Z,60.17
2017-12-01T05:14:50.594Z,60.28
2017-12-01T05:17:18.889Z,57.58
2017-12-01T05:19:46.389Z,61.33
2017-12-01T05:22:14.706Z,56.53
2017-12-01T05:24:42.206Z,60.63
2017-12-01T05:27:09.699Z,62.35
2017-12-01T05:29:37.294Z,63.47
2017-12-01T05:32:04.794Z,62.70
2017-12-01T05:34:32.283Z,59.45
2017-12-01T05:37:00.551Z,63.30
2017-12-01T05:39:29.544Z,64.95
2017-12-01T05:41:57.124Z,61.10
2017-12-01T05:44:24.623Z,62.38
2017-12-01T05:46:52.129Z,68.43
2017-12-01T05:49:19.604Z,59.78
2017-12-01T05:51:47.166Z,66.60
2017-12-01T05:54:14.668Z,64.18
2017-12-01T05:56:42.160Z,66.47
2017-12-01T05:59:10.455Z,63.92
2017-12-01T06:01:37.965Z,63.95
2017-12-01T06:04:05.466Z,62.35
2017-12-01T06:06:33.729Z,59.17
2017-12-01T06:09:02.034Z,65.45
2017-12-01T06:11:29.532Z,64.40
2017-12-01T06:13:57.027Z,60.35
2017-12-01T06:16:25.316Z,65.70
2017-12-01T06:18:53.563Z,66.50
2017-12-01T06:21:21.092Z,71.97
2017-12-01T06:23:48.637Z,75.03
2017-12-01T06:26:16.156Z,65.70
2017-12-01T06:28:44.414Z,69.22
2017-12-01T06:31:12.004Z,66.60
2017-12-01T06:33:40.288Z,64.28
2017-12-01T06:36:07.790Z,65.70
2017-12-01T06:38:35.310Z,70.43
2017-12-01T06:41:02.825Z,64.50
2017-12-01T06:43:31.831Z,63.58
2017-12-01T06:46:00.136Z,66.87
2017-12-01T06:48:27.630Z,63.15
2017-12-01T06:50:55.184Z,64.62
2017-12-01T06:53:22.668Z,68.07
2017-12-01T06:55:50.163Z,66.90
2017-12-01T06:58:18.412Z,72.95
2017-12-01T07:00:46.673Z,66.53
2017-12-01T07:03:14.164Z,70.40
2017-12-01T07:05:42.420Z,67.05
2017-12-01T07:08:10.721Z,67.37
2017-12-01T07:10:38.225Z,69.97
2017-12-01T07:13:05.731Z,67.75
2017-12-01T07:15:34.009Z,65.40
2017-12-01T07:18:02.790Z,69.68
2017-12-01T07:20:31.061Z,65.87
2017-12-01T07:22:59.367Z,69.60
2017-12-01T07:25:26.861Z,72.20
2017-12-01T07:27:54.369Z,67.87
2017-12-01T07:30:22.640Z,67.90
2017-12-01T07:32:50.915Z,61.08
2017-12-01T07:35:19.197Z,64.62
2017-12-01T07:37:47.468Z,62.35
2017-12-01T07:40:16.617Z,60.55
2017-12-01T07:42:44.104Z,58.08
2017-12-01T07:45:14.052Z,66.40
2017-12-01T07:47:42.295Z,57.33
2017-12-01T07:50:11.304Z,61.28
2017-12-01T07:52:39.551Z,59.30
2017-12-01T07:55:07.041Z,61.90
2017-12-01T07:57:35.305Z,59.60
2017-12-01T08:00:03.580Z,52.67
2017-12-01T08:02:32.579Z,56.40
2017-12-01T08:05:00.065Z,52.70
2017-12-01T08:07:42.440Z,52.50
2017-12-01T08:10:09.937Z,49.30
2017-12-01T08:12:37.438Z,56.00
2017-12-01T08:15:04.960Z,53.13
2017-12-01T08:17:32.451Z,54.00
2017-12-01T08:19:59.956Z,54.10
2017-12-01T08:22:39.201Z,52.75
2017-12-01T08:25:18.692Z,51.10
2017-12-01T08:27:46.218Z,50.30
2017-12-01T08:30:13.729Z,47.15
2017-12-01T08:32:42.044Z,48.53
2017-12-01T08:35:09.597Z,49.35
2017-12-01T08:37:37.085Z,52.30
2017-12-01T08:40:04.580Z,50.47
2017-12-01T08:42:32.840Z,49.10
2017-12-01T08:45:01.098Z,47.80
2017-12-01T08:47:28.600Z,50.40
2017-12-01T08:49:56.860Z,45.47
2017-12-01T08:52:24.367Z,49.25
2017-12-01T08:54:51.869Z,41.03
2017-12-01T08:57:19.370Z,44.00
2017-12-01T08:59:46.954Z,39.70
2017-12-01T09:02:14.448Z,40.10
2017-12-01T09:04:41.936Z,35.88
2017-12-01T09:07:09.423Z,37.95
2017-12-01T09:09:36.921Z,36.75
2017-12-01T09:12:04.442Z,36.38
2017-12-01T09:14:31.968Z,37.70
2017-12-01T09:16:59.487Z,36.70
2017-12-01T09:19:26.985Z,35.72
2017-12-01T09:21:54.500Z,35.88
2017-12-01T09:24:22.021Z,34.83
2017-12-01T09:26:49.521Z,38.10
2017-12-01T09:29:17.012Z,41.80
2017-12-01T09:31:45.457Z,33.03
2017-12-01T09:34:12.988Z,34.97
2017-12-01T09:36:40.504Z,35.45
2017-12-01T09:39:08.792Z,32.08
2017-12-01T09:41:36.304Z,32.70
2017-12-01T09:44:03.840Z,35.90
2017-12-01T09:46:31.380Z,28.10
2017-12-01T09:48:58.900Z,31.58
2017-12-01T09:51:27.189Z,33.78
2017-12-01T09:53:55.449Z,30.17
2017-12-01T09:56:22.964Z,34.92
2017-12-01T09:58:50.467Z,33.53
2017-12-01T10:01:18.739Z,33.22
2017-12-01T10:03:46.262Z,35.25
2017-12-01T10:06:13.771Z,31.62
2017-12-01T10:08:42.049Z,30.15
2017-12-01T10:11:10.328Z,32.97
2017-12-01T10:13:38.617Z,32.60
2017-12-01T10:16:06.141Z,32.22
2017-12-01T10:18:33.647Z,33.10
2017-12-01T10:21:01.216Z,32.83
2017-12-01T10:23:28.707Z,29.37
2017-12-01T10:25:56.210Z,27.23
2017-12-01T10:28:23.719Z,33.42
2017-12-01T10:30:51.225Z,28.00
2017-12-01T10:33:18.730Z,30.27
2017-12-01T10:35:46.240Z,29.42
2017-12-01T10:38:13.748Z,30.52
2017-12-01T10:40:42.026Z,26.87
2017-12-01T10:43:09.543Z,30.58
2017-12-01T10:45:37.071Z,33.17
2017-12-01T10:48:05.951Z,29.27
2017-12-01T10:50:33.469Z,31.77
2017-12-01T10:53:01.738Z,33.83
2017-12-01T10:55:29.262Z,31.90
2017-12-01T10:57:57.561Z,34.80
2017-12-01T11:00:25.074Z,35.65
2017-12-01T11:02:52.563Z,31.50
2017-12-01T11:05:20.837Z,32.88
2017-12-01T11:07:49.096Z,35.30
2017-12-01T11:10:16.602Z,37.83
2017-12-01T11:12:44.151Z,36.83
2017-12-01T11:15:11.661Z,35.15
2017-12-01T11:17:39.150Z,36.83
2017-12-01T11:20:06.659Z,39.97
2017-12-01T11:22:34.184Z,40.58
2017-12-01T11:25:01.724Z,39.83
2017-12-01T11:27:29.294Z,41.33
2017-12-01T11:29:56.795Z,38.23
2017-12-01T11:32:24.347Z,37.47
2017-12-01T11:34:51.999Z,36.57
2017-12-01T11:37:19.549Z,36.60
2017-12-01T11:39:47.084Z,38.27
2017-12-01T11:42:14.596Z,39.97
2017-12-01T11:44:42.120Z,37.78
2017-12-01T11:47:09.623Z,35.73
2017-12-01T11:49:37.125Z,37.00
2017-12-01T11:52:04.723Z,37.60
2017-12-01T11:54:32.213Z,36.75
2017-12-01T11:56:59.708Z,38.30
2017-12-01T11:59:27.218Z,38.67
2017-12-01T12:01:54.733Z,38.30
2017-12-01T12:04:22.235Z,37.00
2017-12-01T12:06:50.094Z,34.90
2017-12-01T12:09:17.589Z,35.87
2017-12-01T12:11:45.843Z,35.77
2017-12-01T12:14:13.329Z,36.20
2017-12-01T12:16:40.849Z,34.38
2017-12-01T12:19:08.336Z,32.97
2017-12-01T12:21:36.624Z,35.10
2017-12-01T12:24:04.171Z,35.73
2017-12-01T12:26:32.457Z,32.10
2017-12-01T12:29:00.744Z,35.67
2017-12-01T12:31:28.290Z,35.23
2017-12-01T12:33:55.784Z,33.72
2017-12-01T12:36:23.296Z,35.92
2017-12-01T12:38:51.555Z,32.65
2017-12-01T12:41:19.055Z,33.43
2017-12-01T12:43:46.560Z,33.50
2017-12-01T12:46:14.109Z,35.42
2017-12-01T12:48:41.607Z,31.47
2017-12-01T12:51:09.885Z,32.60
2017-12-01T12:53:37.379Z,31.37
2017-12-01T12:56:04.880Z,33.35
2017-12-01T12:58:32.406Z,29.75
2017-12-01T13:00:59.993Z,30.90
2017-12-01T13:03:27.590Z,28.02
2017-12-01T13:05:55.996Z,31.13
2017-12-01T13:08:23.588Z,32.65
2017-12-01T13:10:51.196Z,30.50
2017-12-01T13:13:18.730Z,28.60
2017-12-01T13:15:47.057Z,28.08
2017-12-01T13:18:15.411Z,34.73
2017-12-01T13:20:42.938Z,30.25
2017-12-01T13:23:10.592Z,29.55
2017-12-01T13:25:38.159Z,33.65
2017-12-01T13:28:06.161Z,31.50
2017-12-01T13:30:33.664Z,33.73
2017-12-01T13:33:01.380Z,30.67
2017-12-01T13:35:28.896Z,30.47
2017-12-01T13:37:56.392Z,28.17
2017-12-01T13:40:23.971Z,31.33
2017-12-01T13:42:51.467Z,32.70
2017-12-01T13:45:19.068Z,31.87
2017-12-01T13:47:47.328Z,28.60
2017-12-01T13:50:15.620Z,30.45
2017-12-01T13:52:43.880Z,29.98
2017-12-01T13:55:12.166Z,28.35
2017-12-01T13:57:40.479Z,31.73
2017-12-01T14:00:08.013Z,32.43
2017-12-01T14:02:35.592Z,31.27
2017-12-01T14:05:03.109Z,27.67
2017-12-01T14:07:30.615Z,27.73
2017-12-01T14:09:58.161Z,27.95
2017-12-01T14:12:25.700Z,30.83
2017-12-01T14:14:53.985Z,29.10
2017-12-01T14:17:21.516Z,30.60
2017-12-01T14:19:49.033Z,30.77
2017-12-01T14:22:16.553Z,30.23
2017-12-01T14:24:44.816Z,29.30
2017-12-01T14:27:13.086Z,30.85
2017-12-01T14:29:41.352Z,30.33
2017-12-01T14:32:08.883Z,34.03
2017-12-01T14:34:36.386Z,28.33
2017-12-01T14:37:04.668Z,28.38
2017-12-01T14:39:32.940Z,32.55
2017-12-01T14:42:01.218Z,29.75
2017-12-01T14:44:29.479Z,31.75
2017-12-01T14:46:56.979Z,32.22
2017-12-01T14:49:24.529Z,34.33
2017-12-01T14:51:52.459Z,31.37
2017-12-01T14:54:19.952Z,37.97
2017-12-01T14:56:48.228Z,34.35
2017-12-01T14:59:16.479Z,32.63
2017-12-01T15:01:45.608Z,33.15
2017-12-01T15:04:13.109Z,37.80
2017-12-01T15:06:40.616Z,30.27
2017-12-01T15:09:08.118Z,33.83
2017-12-01T15:11:35.663Z,37.28
2017-12-01T15:14:03.161Z,34.28
2017-12-01T15:16:30.684Z,34.42
2017-12-01T15:18:58.184Z,34.53
2017-12-01T15:21:25.808Z,33.50
2017-12-01T15:23:53.296Z,32.35
2017-12-01T15:26:20.842Z,33.67
2017-12-01T15:28:48.332Z,31.62
2017-12-01T15:31:16.603Z,32.95
2017-12-01T15:33:44.871Z,29.65
2017-12-01T15:36:12.392Z,31.77
2017-12-01T15:38:39.894Z,31.33
2017-12-01T15:41:07.388Z,32.17
2017-12-01T15:43:34.888Z,28.50
2017-12-01T15:46:02.406Z,29.92
2017-12-01T15:48:29.902Z,29.70
2017-12-01T15:50:57.453Z,28.15
2017-12-01T15:53:24.939Z,31.27
2017-12-01T15:55:52.444Z,30.88
2017-12-01T15:58:19.939Z,30.73
2017-12-01T16:00:47.492Z,29.15
2017-12-01T16:03:14.998Z,30.35
2017-12-01T16:05:42.505Z,29.08
2017-12-01T16:08:10.014Z,32.03
2017-12-01T16:10:37.522Z,28.80
2017-12-01T16:13:05.016Z,29.05
2017-12-01T16:15:32.521Z,30.35
2017-12-01T16:18:00.021Z,30.12
2017-12-01T16:20:27.520Z,28.92
2017-12-01T16:22:55.037Z,30.00
2017-12-01T16:25:22.538Z,31.87
2017-12-01T16:27:50.051Z,27.67
2017-12-01T16:30:17.564Z,29.05
2017-12-01T16:32:51.155Z,31.27
2017-12-01T16:35:13.371Z,30.15
2017-12-01T16:37:40.916Z,35.58
2017-12-01T16:40:09.196Z,31.60
2017-12-01T16:42:36.737Z,31.73
2017-12-01T16:45:04.259Z,32.67
2017-12-01T16:47:31.768Z,35.08
2017-12-01T16:50:00.023Z,32.90
2017-12-01T16:52:27.545Z,34.13
2017-12-01T16:54:55.046Z,33.38
2017-12-01T16:57:22.560Z,35.53
2017-12-01T16:59:50.054Z,35.00
2017-12-01T17:02:17.569Z,33.97
2017-12-01T17:04:45.068Z,35.42
2017-12-01T17:07:12.579Z,38.95
2017-12-01T17:09:40.085Z,33.45
2017-12-01T17:12:07.692Z,38.15
2017-12-01T17:14:35.200Z,32.83
2017-12-01T17:17:03.456Z,39.33
2017-12-01T17:19:31.380Z,41.00
2017-12-01T17:21:59.700Z,42.47
2017-12-01T17:24:27.201Z,39.00
2017-12-01T17:26:54.707Z,39.38
2017-12-01T17:29:22.312Z,38.47
2017-12-01T17:31:49.826Z,41.20
2017-12-01T17:34:17.331Z,39.45
2017-12-01T17:36:44.903Z,38.78
2017-12-01T17:39:12.488Z,38.80
2017-12-01T17:41:40.009Z,39.03
2017-12-01T17:44:07.562Z,38.10
2017-12-01T17:46:35.125Z,39.15
2017-12-01T17:49:02.612Z,37.10
2017-12-01T17:51:30.879Z,40.72
2017-12-01T17:53:59.186Z,41.00
2017-12-01T17:56:26.684Z,38.35
2017-12-01T17:58:54.205Z,46.83
2017-12-01T18:01:21.708Z,40.83
2017-12-01T18:03:49.270Z,39.45
2017-12-01T18:06:16.892Z,38.30
2017-12-01T18:08:44.402Z,37.10
2017-12-01T18:11:11.906Z,41.30
2017-12-01T18:13:39.418Z,40.00
2017-12-01T18:16:06.930Z,40.15
2017-12-01T18:18:34.470Z,41.70
2017-12-01T18:21:01.975Z,45.78
2017-12-01T18:23:30.969Z,43.22
2017-12-01T18:25:58.500Z,42.95
2017-12-01T18:28:25.999Z,44.47
2017-12-01T18:30:54.453Z,42.97
2017-12-01T18:33:22.097Z,41.50
2017-12-01T18:35:49.630Z,40.40
2017-12-01T18:38:17.167Z,40.92
2017-12-01T18:40:44.676Z,43.45
2017-12-01T18:43:12.963Z,42.95
2017-12-01T18:45:40.525Z,42.25
2017-12-01T18:48:08.106Z,48.22
2017-12-01T18:50:35.600Z,44.00
2017-12-01T18:53:03.165Z,42.03
2017-12-01T18:55:30.677Z,45.53
2017-12-01T18:57:58.192Z,42.17
2017-12-01T19:00:25.687Z,42.88
2017-12-01T19:02:53.180Z,46.83
2017-12-01T19:05:21.476Z,44.75
2017-12-01T19:07:49.060Z,45.30
2017-12-01T19:10:16.551Z,44.33
2017-12-01T19:12:44.059Z,52.20
2017-12-01T19:15:11.619Z,43.15
2017-12-01T19:17:39.124Z,41.30
2017-12-01T19:20:06.645Z,45.65
2017-12-01T19:22:34.173Z,48.28
2017-12-01T19:25:01.727Z,44.40
2017-12-01T19:27:29.253Z,42.83
2017-12-01T19:29:56.776Z,44.88
2017-12-01T19:32:24.391Z,47.30
2017-12-01T19:34:51.900Z,49.78
2017-12-01T19:37:19.427Z,48.63
2017-12-01T19:39:47.715Z,48.10
2017-12-01T19:42:15.225Z,47.92
2017-12-01T19:44:42.792Z,44.83
2017-12-01T19:47:10.398Z,45.80
2017-12-01T19:49:37.992Z,48.70
2017-12-01T19:52:05.644Z,48.22
2017-12-01T19:54:33.147Z,47.45
2017-12-01T19:57:00.651Z,49.83
2017-12-01T19:59:28.149Z,49.25
2017-12-01T20:01:55.648Z,45.17
2017-12-01T20:04:23.242Z,49.53
2017-12-01T20:06:50.736Z,47.97
2017-12-01T20:09:18.224Z,48.83
2017-12-01T20:11:45.737Z,51.17
2017-12-01T20:14:13.236Z,50.80
2017-12-01T20:16:41.525Z,50.78
2017-12-01T20:19:09.064Z,52.00
2017-12-01T20:21:36.564Z,49.08
2017-12-01T20:24:04.092Z,50.85
2017-12-01T20:26:32.346Z,51.80
2017-12-01T20:29:00.935Z,52.67
2017-12-01T20:31:28.468Z,51.40
2017-12-01T20:33:56.020Z,49.08
2017-12-01T20:36:23.565Z,47.97
2017-12-01T20:38:51.056Z,47.58
2017-12-01T20:41:18.624Z,49.33
2017-12-01T20:43:46.892Z,48.35
2017-12-01T20:46:14.392Z,48.67
2017-12-01T20:48:41.894Z,48.80
2017-12-01T20:51:09.405Z,67.55
2017-12-01T20:53:36.902Z,58.60
2017-12-01T20:56:04.501Z,60.60
2017-12-01T20:58:32.757Z,58.92
2017-12-01T21:01:00.270Z,54.05
2017-12-01T21:03:27.781Z,56.45
2017-12-01T21:05:55.283Z,56.63
2017-12-01T21:08:22.776Z,54.38
2017-12-01T21:10:50.277Z,61.08
2017-12-01T21:13:18.540Z,57.78
2017-12-01T21:15:46.900Z,56.88
2017-12-01T21:18:15.218Z,57.25
2017-12-01T21:20:42.724Z,57.67
2017-12-01T21:23:10.335Z,50.65
2017-12-01T21:25:37.840Z,51.05
2017-12-01T21:28:05.329Z,55.55
2017-12-01T21:30:33.600Z,55.58
2017-12-01T21:33:01.341Z,61.28
2017-12-01T21:35:28.869Z,54.13
2017-12-01T21:37:56.365Z,72.87
2017-12-01T21:40:23.987Z,54.55
2017-12-01T21:42:51.512Z,59.85
2017-12-01T21:45:19.784Z,52.72
2017-12-01T21:47:47.319Z,54.38
2017-12-01T21:50:14.819Z,51.92
2017-12-01T21:52:42.332Z,47.90
2017-12-01T21:55:09.834Z,45.53
2017-12-01T21:57:38.123Z,49.17
2017-12-01T22:00:05.628Z,48.65
2017-12-01T22:02:33.145Z,45.80
2017-12-01T22:05:00.669Z,48.40
2017-12-01T22:07:28.943Z,51.65
2017-12-01T22:09:57.199Z,49.38
2017-12-01T22:12:25.639Z,51.08
2017-12-01T22:14:53.300Z,48.20
2017-12-01T22:17:20.868Z,50.03
2017-12-01T22:19:48.366Z,50.33
2017-12-01T22:22:15.874Z,48.08
2017-12-01T22:24:43.420Z,44.63
2017-12-01T22:27:10.932Z,53.65
2017-12-01T22:29:38.461Z,52.30
2017-12-01T22:32:05.996Z,48.67
2017-12-01T22:34:33.480Z,50.80
2017-12-01T22:37:00.981Z,51.53
2017-12-01T22:39:29.249Z,49.47
2017-12-01T22:41:56.757Z,44.92
2017-12-01T22:44:24.255Z,53.20
2017-12-01T22:46:51.757Z,47.97
2017-12-01T22:49:20.024Z,49.17
2017-12-01T22:51:48.293Z,52.62
2017-12-01T22:54:16.571Z,53.58
2017-12-01T22:56:44.856Z,56.60
2017-12-01T22:59:13.132Z,52.75
2017-12-01T23:01:41.411Z,56.72
2017-12-01T23:04:09.759Z,54.45
2017-12-01T23:06:37.264Z,57.72
2017-12-01T23:09:04.765Z,48.45
2017-12-01T23:11:33.036Z,52.70
2017-12-01T23:14:00.536Z,50.67
2017-12-01T23:16:28.031Z,49.72
2017-12-01T23:18:55.521Z,54.47
2017-12-01T23:21:23.039Z,52.85
2017-12-01T23:23:50.542Z,51.97
2017-12-01T23:26:18.057Z,48.20
2017-12-01T23:28:45.539Z,53.58
2017-12-01T23:31:13.073Z,53.60
2017-12-01T23:33:40.622Z,52.83
2017-12-01T23:36:08.141Z,54.90
2017-12-01T23:38:35.628Z,52.40
2017-12-01T23:41:03.146Z,51.97
2017-12-01T23:43:30.633Z,56.63
2017-12-01T23:45:58.920Z,54.42
2017-12-01T23:48:26.404Z,56.65
2017-12-01T23:50:53.920Z,53.83
2017-12-01T23:53:22.208Z,52.67
2017-12-01T23:55:50.492Z,49.88
2017-12-01T23:58:18.060Z,52.67
